Time;durP1;ratioP1;P1;durP2;ratioP2;P2;SDS_P1;SDS_P2;PMS_P1;PMS_P2;Temp;Humidity;BMP_temperature;BMP_pressure;BME280_temperature;BME280_humidity;BME280_pressure;Samples;Min_cycle;Max_cycle;Signal;HPM_P1;HPM_P2
2021/12/20 00:02:12;;;;;;;0.52;0.40;;;20.70;60.80;;;;;;5125083;28;20104;-42
2021/12/20 00:04:39;;;;;;;0.50;0.40;;;20.70;60.60;;;;;;5124553;28;20016;-41
2021/12/20 00:07:05;;;;;;;0.30;0.30;;;20.70;60.30;;;;;;5123750;28;20040;-42
2021/12/20 00:09:31;;;;;;;0.50;0.50;;;20.70;60.30;;;;;;5120947;28;20059;-42
2021/12/20 00:11:57;;;;;;;0.47;0.47;;;20.60;60.40;;;;;;5112586;28;20076;-41
2021/12/20 00:14:23;;;;;;;0.40;0.40;;;20.60;60.50;;;;;;5109913;28;20447;-44
2021/12/20 00:16:50;;;;;;;0.60;0.57;;;20.60;60.70;;;;;;5124852;28;20031;-42
2021/12/20 00:19:16;;;;;;;0.50;0.50;;;20.70;60.70;;;;;;5125145;27;20027;-42
2021/12/20 00:21:42;;;;;;;0.43;0.43;;;20.70;60.60;;;;;;5123821;28;20054;-41
2021/12/20 00:24:08;;;;;;;1.00;0.40;;;20.70;60.30;;;;;;5124174;28;20031;-42
2021/12/20 00:26:34;;;;;;;0.55;0.50;;;20.70;60.10;;;;;;5124693;28;20128;-43
2021/12/20 00:29:00;;;;;;;0.40;0.38;;;20.60;60.00;;;;;;5123941;28;20027;-44
2021/12/20 00:31:26;;;;;;;0.50;0.50;;;20.60;60.20;;;;;;5107075;28;20025;-44
2021/12/20 00:33:52;;;;;;;0.50;0.50;;;20.50;60.20;;;;;;5103550;28;20054;-42
2021/12/20 00:36:22;;;;;;;0.50;0.50;;;20.60;60.40;;;;;;5112865;28;20062;-42
2021/12/20 00:41:33;;;;;;;0.50;0.47;;;20.70;60.20;;;;;;5124128;28;20047;-45
2021/12/20 00:43:59;;;;;;;0.43;0.43;;;20.70;59.90;;;;;;5124188;28;20101;-44
2021/12/20 00:46:26;;;;;;;0.52;0.40;;;20.60;59.80;;;;;;5124134;28;20039;-44
2021/12/20 00:48:52;;;;;;;0.50;0.50;;;20.60;59.90;;;;;;5123814;28;20187;-45
2021/12/20 00:51:18;;;;;;;0.50;0.50;;;20.50;59.90;;;;;;5123967;28;20027;-42
2021/12/20 00:53:44;;;;;;;0.70;0.50;;;20.50;60.10;;;;;;5123246;28;20080;-42
2021/12/20 00:56:10;;;;;;;1.33;0.85;;;20.60;60.20;;;;;;5124052;28;20028;-43
2021/12/20 00:58:37;;;;;;;0.50;0.43;;;20.60;59.90;;;;;;5123886;28;20038;-42
2021/12/20 01:01:03;;;;;;;0.60;0.40;;;20.70;59.80;;;;;;5122928;28;20047;-45
2021/12/20 01:03:30;;;;;;;0.50;0.43;;;20.60;59.70;;;;;;5122981;28;20027;-44
2021/12/20 01:05:58;;;;;;;0.50;0.50;;;20.60;59.60;;;;;;5121898;28;20027;-42
2021/12/20 01:08:24;;;;;;;0.38;0.38;;;20.60;59.70;;;;;;5113372;28;20019;-42
2021/12/20 01:10:53;;;;;;;0.52;0.52;;;20.50;59.80;;;;;;5120413;28;20023;-43
2021/12/20 01:13:22;;;;;;;0.60;0.45;;;20.50;59.90;;;;;;5112318;28;20043;-43
2021/12/20 01:15:51;;;;;;;0.68;0.47;;;20.60;59.90;;;;;;5112508;28;20163;-42
2021/12/20 01:18:18;;;;;;;0.73;0.50;;;20.70;59.80;;;;;;5112481;28;20031;-43
2021/12/20 01:20:44;;;;;;;0.40;0.40;;;20.60;59.60;;;;;;5114988;28;20043;-41
2021/12/20 01:23:11;;;;;;;0.50;0.45;;;20.60;59.40;;;;;;5111968;28;20020;-44
2021/12/20 01:25:38;;;;;;;0.70;0.35;;;20.60;59.50;;;;;;5112907;28;20066;-44
2021/12/20 01:28:04;;;;;;;0.20;0.20;;;20.50;59.60;;;;;;5115616;28;20099;-41
2021/12/20 01:30:31;;;;;;;0.40;0.40;;;20.50;59.70;;;;;;5119439;28;20160;-41
2021/12/20 01:32:57;;;;;;;0.35;0.30;;;20.50;59.80;;;;;;5122861;28;20275;-42
2021/12/20 01:35:24;;;;;;;0.35;0.35;;;20.60;59.70;;;;;;5120698;28;20027;-41
2021/12/20 01:37:50;;;;;;;0.30;0.30;;;20.60;59.60;;;;;;5115442;28;20484;-41
2021/12/20 01:40:17;;;;;;;0.85;0.55;;;20.70;59.80;;;;;;5116019;28;20084;-41
2021/12/20 01:42:43;;;;;;;0.30;0.30;;;20.70;59.70;;;;;;5122356;28;20024;-41
2021/12/20 01:45:17;;;;;;;0.40;0.38;;;20.80;59.80;;;;;;5120784;28;20104;-43
2021/12/20 01:47:47;;;;;;;0.30;0.30;;;20.80;59.80;;;;;;5117513;28;20039;-43
2021/12/20 01:50:41;;;;;;;0.60;0.40;;;20.90;59.90;;;;;;5122518;28;20053;-41
2021/12/20 01:53:08;;;;;;;0.35;0.35;;;20.90;59.70;;;;;;5120701;28;20047;-41
2021/12/20 01:55:34;;;;;;;;;;;20.90;59.60;;;;;;5117360;28;20518;-41
2021/12/20 01:58:00;;;;;;;0.40;0.38;;;20.90;59.50;;;;;;5122209;28;19911;-41
2021/12/20 02:00:27;;;;;;;0.30;0.30;;;20.90;59.80;;;;;;5121966;28;20038;-43
2021/12/20 02:03:00;;;;;;;0.55;0.45;;;20.90;59.70;;;;;;5121936;28;20043;-43
2021/12/20 02:08:15;;;;;;;0.30;0.30;;;21.00;59.80;;;;;;5121678;28;20076;-42
2021/12/20 02:10:45;;;;;;;0.60;0.40;;;21.00;59.60;;;;;;5112298;28;20390;-45
2021/12/20 02:13:13;;;;;;;0.40;0.40;;;21.00;59.50;;;;;;5120649;28;20498;-41
2021/12/20 02:15:39;;;;;;;0.60;0.40;;;21.00;59.40;;;;;;5121726;28;20049;-41
2021/12/20 02:18:05;;;;;;;0.35;0.32;;;21.00;59.60;;;;;;5120108;28;20023;-42
2021/12/20 02:20:32;;;;;;;0.32;0.30;;;21.00;59.60;;;;;;5121662;28;20031;-42
2021/12/20 02:22:59;;;;;;;0.70;0.30;;;21.10;59.60;;;;;;5122139;28;20046;-44
2021/12/20 02:25:25;;;;;;;0.40;0.40;;;21.10;59.50;;;;;;5121425;28;20039;-41
2021/12/20 02:27:52;;;;;;;0.52;0.43;;;21.10;59.30;;;;;;5110883;28;20030;-42
2021/12/20 02:38:40;;;;;;;0.40;0.40;;;21.10;59.40;;;;;;5115963;28;20038;-40
2021/12/20 02:41:10;;;;;;;0.63;0.40;;;21.20;59.30;;;;;;5121039;28;20046;-41
2021/12/20 02:43:41;;;;;;;0.43;0.40;;;21.20;59.30;;;;;;5120825;28;20027;-42
2021/12/20 02:46:33;;;;;;;0.40;0.30;;;21.20;59.10;;;;;;5124067;28;20059;-41
2021/12/20 02:48:59;;;;;;;0.50;0.50;;;21.10;59.00;;;;;;5121875;28;20681;-40
2021/12/20 02:51:26;;;;;;;0.45;0.32;;;21.10;59.10;;;;;;5125898;27;20067;-45
2021/12/20 02:53:52;;;;;;;;;;;21.10;59.40;;;;;;5126421;28;20036;-40
2021/12/20 02:56:19;;;;;;;0.50;0.40;;;21.20;59.20;;;;;;5125536;28;19912;-40
2021/12/20 02:58:45;;;;;;;0.43;0.40;;;21.20;59.20;;;;;;5124035;28;20035;-40
2021/12/20 03:01:11;;;;;;;0.38;0.35;;;21.20;59.00;;;;;;5120732;28;20039;-40
2021/12/20 03:03:37;;;;;;;0.60;0.47;;;21.20;58.90;;;;;;5118977;28;20038;-40
2021/12/20 03:06:31;;;;;;;0.88;0.40;;;21.10;59.40;;;;;;5118789;28;20362;-40
2021/12/20 03:08:57;;;;;;;0.30;0.30;;;21.10;59.20;;;;;;5108814;28;20036;-40
2021/12/20 03:11:26;;;;;;;1.00;0.30;;;21.20;59.20;;;;;;5118084;28;20035;-42
2021/12/20 03:13:57;;;;;;;0.50;0.50;;;21.30;59.10;;;;;;5116794;28;20053;-40
2021/12/20 03:16:23;;;;;;;0.75;0.30;;;21.30;59.00;;;;;;5114242;28;20027;-41
2021/12/20 03:18:49;;;;;;;0.50;0.50;;;21.20;58.80;;;;;;5108864;28;20039;-44
2021/12/20 03:21:15;;;;;;;0.50;0.40;;;21.10;58.80;;;;;;5115351;28;20036;-41
2021/12/20 03:23:41;;;;;;;0.40;0.30;;;21.10;58.90;;;;;;5111969;28;20084;-43
2021/12/20 03:26:08;;;;;;;0.30;0.30;;;21.10;59.10;;;;;;5116875;28;20046;-41
2021/12/20 03:28:34;;;;;;;0.40;0.40;;;21.10;59.20;;;;;;5116123;28;20058;-41
2021/12/20 03:31:00;;;;;;;0.60;0.30;;;21.20;59.10;;;;;;5120145;28;20540;-41
2021/12/20 03:33:26;;;;;;;0.50;0.40;;;21.30;59.00;;;;;;5123196;28;20018;-41
2021/12/20 03:35:52;;;;;;;0.57;0.30;;;21.20;58.80;;;;;;5121510;28;20059;-40
2021/12/20 03:38:18;;;;;;;0.35;0.30;;;21.20;58.80;;;;;;5122032;28;20095;-41
2021/12/20 03:40:44;;;;;;;0.40;0.30;;;21.10;58.80;;;;;;5124370;27;20043;-40
2021/12/20 03:43:12;;;;;;;0.50;0.43;;;21.10;59.10;;;;;;5123034;28;20028;-43
2021/12/20 03:45:40;;;;;;;0.50;0.40;;;21.20;59.10;;;;;;5122503;28;20106;-41
2021/12/20 03:48:06;;;;;;;0.30;0.25;;;21.30;58.90;;;;;;5122103;28;20081;-41
2021/12/20 03:50:32;;;;;;;0.68;0.40;;;21.30;58.90;;;;;;5123265;28;20459;-42
2021/12/20 03:52:58;;;;;;;0.47;0.40;;;21.30;58.70;;;;;;5122136;27;20032;-40
2021/12/20 03:55:25;;;;;;;0.85;0.50;;;21.20;58.70;;;;;;5123407;28;20020;-41
2021/12/20 03:57:51;;;;;;;0.30;0.30;;;21.10;58.70;;;;;;5122747;27;20605;-40
2021/12/20 04:00:17;;;;;;;0.40;0.30;;;21.10;59.00;;;;;;5119638;28;20144;-41
2021/12/20 04:02:45;;;;;;;0.50;0.40;;;21.20;58.90;;;;;;5124680;28;20028;-41
2021/12/20 04:05:12;;;;;;;0.50;0.40;;;21.30;58.90;;;;;;5123894;28;20032;-41
2021/12/20 04:07:38;;;;;;;1.08;0.47;;;21.30;58.80;;;;;;5123658;28;20027;-41
2021/12/20 04:10:04;;;;;;;0.40;0.40;;;21.30;58.60;;;;;;5123080;28;20047;-41
2021/12/20 04:12:31;;;;;;;0.85;0.45;;;21.20;58.60;;;;;;5122945;28;20035;-41
2021/12/20 04:14:57;;;;;;;0.40;0.40;;;21.10;58.60;;;;;;5124260;28;20031;-41
2021/12/20 04:17:23;;;;;;;0.88;0.50;;;21.10;58.70;;;;;;5124321;28;20027;-41
2021/12/20 04:19:49;;;;;;;1.20;0.40;;;21.10;59.00;;;;;;5124324;28;20048;-41
2021/12/20 04:22:18;;;;;;;0.35;0.32;;;21.20;58.90;;;;;;5124363;28;20027;-40
2021/12/20 04:24:44;;;;;;;0.40;0.40;;;21.30;58.90;;;;;;5124188;28;20084;-42
2021/12/20 04:27:11;;;;;;;0.60;0.32;;;21.20;58.70;;;;;;5122655;28;20484;-41
2021/12/20 04:29:37;;;;;;;0.45;0.40;;;21.20;58.60;;;;;;5122308;28;20074;-43
2021/12/20 04:32:03;;;;;;;0.43;0.38;;;21.20;58.60;;;;;;5111702;28;20440;-41
2021/12/20 04:34:30;;;;;;;0.47;0.35;;;21.10;58.60;;;;;;5122226;27;20074;-40
2021/12/20 04:36:56;;;;;;;0.40;0.40;;;21.10;58.80;;;;;;5123363;27;20059;-42
2021/12/20 04:39:27;;;;;;;0.40;0.40;;;21.20;58.80;;;;;;5121233;28;20087;-41
2021/12/20 04:41:53;;;;;;;0.73;0.30;;;21.30;58.70;;;;;;5121184;28;20725;-43
2021/12/20 04:44:19;;;;;;;0.60;0.43;;;21.30;58.60;;;;;;5121198;28;20035;-40
2021/12/20 04:46:45;;;;;;;0.30;0.30;;;21.20;58.40;;;;;;5121418;28;20032;-40
2021/12/20 04:49:11;;;;;;;0.75;0.50;;;21.10;58.40;;;;;;5121705;28;20055;-41
2021/12/20 04:51:37;;;;;;;0.50;0.45;;;21.10;58.70;;;;;;5122257;28;20031;-41
2021/12/20 04:54:04;;;;;;;0.75;0.50;;;21.20;58.70;;;;;;5121510;27;20034;-42
2021/12/20 04:56:30;;;;;;;0.47;0.40;;;21.30;58.70;;;;;;5121557;27;20067;-44
2021/12/20 04:58:56;;;;;;;0.50;0.40;;;21.30;58.70;;;;;;5121248;28;20035;-41
2021/12/20 05:01:22;;;;;;;0.70;0.40;;;21.30;58.40;;;;;;5115695;28;20040;-40
2021/12/20 05:03:48;;;;;;;0.35;0.30;;;21.20;58.40;;;;;;5114712;28;20035;-41
2021/12/20 05:06:14;;;;;;;0.45;0.40;;;21.10;58.40;;;;;;5113839;28;20039;-41
2021/12/20 05:08:51;;;;;;;0.40;0.40;;;21.10;58.60;;;;;;5114389;28;20057;-42
2021/12/20 05:11:19;;;;;;;0.57;0.45;;;21.20;58.60;;;;;;5114506;28;20054;-42
2021/12/20 05:13:45;;;;;;;0.40;0.40;;;21.30;58.50;;;;;;5113415;28;20039;-43
2021/12/20 05:16:11;;;;;;;0.57;0.50;;;21.30;58.60;;;;;;5112912;28;20031;-41
2021/12/20 05:18:38;;;;;;;0.50;0.40;;;21.30;58.30;;;;;;5111748;28;20043;-41
2021/12/20 05:21:04;;;;;;;0.70;0.57;;;21.20;58.30;;;;;;5114142;28;20044;-41
2021/12/20 05:23:30;;;;;;;1.08;0.60;;;21.10;58.40;;;;;;5112945;28;20032;-42
2021/12/20 05:25:56;;;;;;;0.63;0.60;;;21.20;58.60;;;;;;5113605;28;21219;-41
2021/12/20 05:28:23;;;;;;;0.80;0.50;;;21.30;58.50;;;;;;5112432;28;20081;-42
2021/12/20 05:30:52;;;;;;;0.60;0.50;;;21.40;58.40;;;;;;5117004;28;20087;-43
2021/12/20 05:33:18;;;;;;;0.70;0.50;;;21.40;58.50;;;;;;5119963;28;20065;-43
2021/12/20 05:35:44;;;;;;;1.15;0.73;;;21.30;58.20;;;;;;5120451;28;20023;-41
2021/12/20 05:38:11;;;;;;;1.23;0.80;;;21.20;58.30;;;;;;5120322;28;20400;-43
2021/12/20 05:40:37;;;;;;;0.57;0.50;;;21.20;58.30;;;;;;5120111;28;20061;-43
2021/12/20 05:43:03;;;;;;;0.98;0.50;;;21.20;58.60;;;;;;5120686;28;20031;-42
2021/12/20 05:45:29;;;;;;;0.60;0.50;;;21.30;58.50;;;;;;5120657;28;20055;-41
2021/12/20 05:47:55;;;;;;;0.65;0.63;;;21.30;58.50;;;;;;5120562;28;20040;-41
2021/12/20 05:50:22;;;;;;;0.65;0.57;;;21.30;58.30;;;;;;5120114;28;20118;-43
2021/12/20 05:52:48;;;;;;;1.10;0.68;;;21.30;58.10;;;;;;5120869;28;20039;-44
2021/12/20 05:55:14;;;;;;;0.50;0.50;;;21.20;58.10;;;;;;5119843;28;20031;-43
2021/12/20 05:57:40;;;;;;;0.90;0.57;;;21.10;58.80;;;;;;5120428;28;20030;-42
2021/12/20 06:00:14;;;;;;;0.60;0.40;;;21.20;58.40;;;;;;5120885;28;20104;-41
2021/12/20 06:02:41;;;;;;;0.80;0.70;;;21.30;58.50;;;;;;5118874;28;20024;-41
2021/12/20 06:05:08;;;;;;;0.60;0.40;;;21.30;58.30;;;;;;5117908;28;20100;-41
2021/12/20 06:07:38;;;;;;;0.52;0.50;;;21.40;58.30;;;;;;5120481;28;20034;-41
2021/12/20 06:10:05;;;;;;;0.75;0.60;;;21.30;58.20;;;;;;5120480;28;20065;-41
2021/12/20 06:12:31;;;;;;;0.70;0.70;;;21.20;58.10;;;;;;5119251;28;20028;-41
2021/12/20 06:14:57;;;;;;;0.60;0.50;;;21.20;58.30;;;;;;5120355;28;20031;-41
2021/12/20 06:17:23;;;;;;;0.88;0.60;;;21.20;58.40;;;;;;5120484;28;20036;-42
2021/12/20 06:19:49;;;;;;;0.85;0.50;;;21.30;58.40;;;;;;5121356;28;20038;-44
2021/12/20 06:22:16;;;;;;;0.80;0.60;;;21.30;58.30;;;;;;5124760;28;20031;-41
2021/12/20 06:24:42;;;;;;;0.60;0.55;;;21.30;58.20;;;;;;5124972;28;20027;-41
2021/12/20 06:27:08;;;;;;;0.70;0.60;;;21.30;58.00;;;;;;5124682;28;20416;-41
2021/12/20 06:29:34;;;;;;;0.80;0.50;;;21.20;58.00;;;;;;5124414;28;20019;-41
2021/12/20 06:32:00;;;;;;;0.40;0.40;;;21.20;58.30;;;;;;5124725;28;20031;-41
2021/12/20 06:34:27;;;;;;;1.30;0.60;;;21.30;58.30;;;;;;5124619;28;20027;-43
2021/12/20 06:36:53;;;;;;;0.77;0.68;;;21.30;58.20;;;;;;5125690;27;20027;-41
2021/12/20 06:39:19;;;;;;;0.60;0.40;;;21.40;58.20;;;;;;5122560;27;20039;-41
2021/12/20 06:41:45;;;;;;;1.08;0.60;;;21.30;57.90;;;;;;5123866;28;20042;-42
2021/12/20 06:44:11;;;;;;;0.70;0.65;;;21.20;57.90;;;;;;5124591;28;20026;-40
2021/12/20 06:46:40;;;;;;;1.27;0.50;;;21.10;58.00;;;;;;5124783;28;20065;-45
2021/12/20 06:49:08;;;;;;;0.63;0.50;;;21.20;58.20;;;;;;5125533;27;20048;-43
2021/12/20 06:51:40;;;;;;;0.70;0.60;;;21.30;58.20;;;;;;5122256;28;20024;-43
2021/12/20 06:54:07;;;;;;;0.47;0.47;;;21.30;58.10;;;;;;5124826;28;20023;-41
2021/12/20 06:56:33;;;;;;;1.63;0.68;;;21.40;58.10;;;;;;5122119;28;20027;-41
2021/12/20 06:58:59;;;;;;;0.50;0.40;;;21.30;57.90;;;;;;5123674;28;20062;-42
2021/12/20 07:01:25;;;;;;;0.90;0.65;;;21.30;57.80;;;;;;5122016;27;20040;-42
2021/12/20 07:03:51;;;;;;;1.35;0.70;;;21.20;57.90;;;;;;5124723;28;20054;-41
2021/12/20 07:06:17;;;;;;;0.55;0.50;;;21.20;58.00;;;;;;5124124;28;20086;-42
2021/12/20 07:08:43;;;;;;;0.47;0.47;;;21.30;58.10;;;;;;5123436;28;20023;-41
2021/12/20 07:11:10;;;;;;;0.60;0.60;;;21.40;58.00;;;;;;5122634;28;20043;-43
2021/12/20 07:13:36;;;;;;;1.00;0.50;;;21.40;57.90;;;;;;5123898;28;20024;-43
2021/12/20 07:16:03;;;;;;;0.40;0.40;;;21.30;57.60;;;;;;5124644;27;20031;-41
2021/12/20 07:18:29;;;;;;;0.95;0.70;;;21.30;57.70;;;;;;5123804;28;20256;-41
2021/12/20 07:20:55;;;;;;;0.45;0.43;;;21.20;58.30;;;;;;5122961;28;20130;-44
2021/12/20 07:23:22;;;;;;;0.70;0.70;;;21.30;57.90;;;;;;5122950;27;20083;-41
2021/12/20 07:25:49;;;;;;;0.88;0.60;;;21.40;57.70;;;;;;5123618;28;20826;-42
2021/12/20 07:28:15;;;;;;;0.70;0.50;;;21.40;57.80;;;;;;5120002;28;20024;-42
2021/12/20 07:30:44;;;;;;;0.80;0.63;;;21.40;57.50;;;;;;5120157;28;20028;-41
2021/12/20 07:33:10;;;;;;;1.02;0.50;;;21.30;57.40;;;;;;5120644;28;20051;-41
2021/12/20 07:35:36;;;;;;;0.55;0.40;;;21.20;57.40;;;;;;5123604;28;20042;-41
2021/12/20 07:38:03;;;;;;;0.60;0.50;;;21.30;57.70;;;;;;5122552;28;20055;-42
2021/12/20 07:40:30;;;;;;;0.77;0.52;;;21.30;57.70;;;;;;5122607;28;20044;-41
2021/12/20 07:42:56;;;;;;;0.40;0.40;;;21.40;57.50;;;;;;5121561;27;20031;-42
2021/12/20 07:45:22;;;;;;;1.67;0.50;;;21.40;57.60;;;;;;5122455;28;20036;-41
2021/12/20 07:47:49;;;;;;;0.90;0.70;;;21.40;57.40;;;;;;5122938;28;20107;-42
2021/12/20 07:50:16;;;;;;;0.40;0.40;;;21.30;57.40;;;;;;5123197;28;20118;-41
2021/12/20 07:52:42;;;;;;;0.55;0.40;;;21.20;57.50;;;;;;5122913;28;20271;-41
2021/12/20 07:55:08;;;;;;;1.02;0.50;;;21.30;57.70;;;;;;5123297;28;20035;-43
2021/12/20 07:57:35;;;;;;;0.50;0.40;;;21.30;57.60;;;;;;5123151;28;20067;-41
2021/12/20 08:00:01;;;;;;;0.40;0.40;;;21.40;57.50;;;;;;5122810;28;20036;-41
2021/12/20 08:02:27;;;;;;;0.90;0.40;;;21.40;57.40;;;;;;5122592;28;20052;-42
2021/12/20 08:04:53;;;;;;;2.17;0.40;;;21.40;57.30;;;;;;5122382;28;20027;-44
2021/12/20 08:07:21;;;;;;;0.55;0.40;;;21.30;57.30;;;;;;5122741;27;20024;-41
2021/12/20 08:09:51;;;;;;;0.65;0.40;;;21.20;57.30;;;;;;5121874;28;20043;-43
2021/12/20 08:12:18;;;;;;;0.40;0.35;;;21.30;57.50;;;;;;5121993;28;20761;-41
2021/12/20 08:14:44;;;;;;;0.75;0.40;;;21.30;57.50;;;;;;5122041;28;20035;-41
2021/12/20 08:17:10;;;;;;;0.97;0.47;;;21.40;57.40;;;;;;5122774;28;20116;-42
2021/12/20 08:19:36;;;;;;;0.32;0.32;;;21.40;57.40;;;;;;5123012;28;20036;-41
2021/12/20 08:22:02;;;;;;;1.08;0.50;;;21.40;57.10;;;;;;5122446;28;20027;-41
2021/12/20 08:24:28;;;;;;;0.75;0.40;;;21.30;57.20;;;;;;5121431;28;20035;-41
2021/12/20 08:26:54;;;;;;;0.40;0.30;;;21.30;57.40;;;;;;5123117;28;20684;-43
2021/12/20 08:29:23;;;;;;;0.40;0.40;;;21.30;57.40;;;;;;5122635;28;20020;-41
2021/12/20 08:31:50;;;;;;;0.60;0.40;;;21.40;57.40;;;;;;5113813;28;22409;-44
2021/12/20 08:34:17;;;;;;;0.50;0.40;;;21.40;57.30;;;;;;5114838;28;20038;-41
2021/12/20 08:36:43;;;;;;;0.50;0.40;;;21.40;57.20;;;;;;5114386;28;20040;-40
2021/12/20 08:39:09;;;;;;;0.40;0.40;;;21.40;57.00;;;;;;5112449;28;20040;-41
2021/12/20 08:41:35;;;;;;;0.65;0.40;;;21.30;57.10;;;;;;5114170;28;20032;-42
2021/12/20 08:44:01;;;;;;;0.60;0.40;;;21.20;57.30;;;;;;5114575;28;20016;-41
2021/12/20 08:46:27;;;;;;;1.00;0.40;;;21.30;57.30;;;;;;5114295;28;20027;-41
2021/12/20 08:48:56;;;;;;;0.52;0.30;;;21.40;57.20;;;;;;5113240;28;20103;-41
2021/12/20 08:51:25;;;;;;;0.50;0.40;;;21.40;57.20;;;;;;5114696;28;20035;-42
2021/12/20 08:53:51;;;;;;;0.55;0.30;;;21.40;56.90;;;;;;5114597;28;20822;-41
2021/12/20 08:56:18;;;;;;;0.35;0.30;;;21.30;56.90;;;;;;5114747;28;20036;-42
2021/12/20 08:58:45;;;;;;;0.50;0.40;;;21.20;57.00;;;;;;5114017;28;20044;-42
2021/12/20 09:01:12;;;;;;;0.50;0.40;;;21.30;57.20;;;;;;5119342;28;20048;-41
2021/12/20 09:03:39;;;;;;;0.30;0.28;;;21.30;57.10;;;;;;5121467;28;20275;-43
2021/12/20 09:06:05;;;;;;;0.50;0.37;;;21.40;57.00;;;;;;5119040;28;20114;-40
2021/12/20 09:08:33;;;;;;;0.40;0.40;;;21.40;57.00;;;;;;5121779;28;20078;-41
2021/12/20 09:11:00;;;;;;;0.65;0.40;;;21.40;56.80;;;;;;5121251;28;20044;-43
2021/12/20 09:13:26;;;;;;;0.32;0.25;;;21.30;56.90;;;;;;5121547;28;20032;-41
2021/12/20 09:15:55;;;;;;;0.50;0.30;;;21.30;57.10;;;;;;5121037;28;20032;-41
2021/12/20 09:18:21;;;;;;;0.30;0.30;;;21.30;57.10;;;;;;5121330;28;20024;-40
2021/12/20 09:20:47;;;;;;;0.50;0.50;;;21.40;57.00;;;;;;5121208;28;20095;-41
2021/12/20 09:23:14;;;;;;;0.50;0.40;;;21.40;57.00;;;;;;5122060;28;20027;-42
2021/12/20 09:25:43;;;;;;;0.75;0.40;;;21.40;56.80;;;;;;5121255;28;20080;-41
2021/12/20 09:28:10;;;;;;;0.35;0.30;;;21.30;56.80;;;;;;5121668;28;20055;-41
2021/12/20 09:30:37;;;;;;;0.30;0.30;;;21.30;57.00;;;;;;5120296;28;20034;-41
2021/12/20 09:33:04;;;;;;;0.40;0.30;;;21.30;57.10;;;;;;5121770;28;20055;-41
2021/12/20 09:35:31;;;;;;;0.40;0.30;;;21.40;56.90;;;;;;5121341;28;20057;-41
2021/12/20 09:37:57;;;;;;;0.70;0.50;;;21.40;57.00;;;;;;5120247;28;20035;-42
2021/12/20 09:40:32;;;;;;;0.52;0.40;;;21.40;56.80;;;;;;5120658;28;20047;-43
2021/12/20 09:42:59;;;;;;;0.40;0.30;;;21.30;56.60;;;;;;5121418;28;20042;-41
2021/12/20 09:45:25;;;;;;;1.00;0.30;;;21.30;56.70;;;;;;5119543;28;20103;-40
2021/12/20 09:47:51;;;;;;;0.73;0.35;;;21.30;56.90;;;;;;5120418;28;20030;-41
2021/12/20 09:50:17;;;;;;;0.45;0.40;;;21.30;56.90;;;;;;5118616;28;20103;-41
2021/12/20 09:52:44;;;;;;;0.77;0.30;;;21.40;56.90;;;;;;5119533;28;20087;-41
2021/12/20 09:55:12;;;;;;;0.50;0.40;;;21.50;56.90;;;;;;5119472;28;20042;-44
2021/12/20 09:57:38;;;;;;;0.30;0.30;;;21.40;56.60;;;;;;5119461;28;20248;-41
2021/12/20 10:00:07;;;;;;;0.52;0.40;;;21.40;56.50;;;;;;5101019;28;20059;-41
2021/12/20 10:02:33;;;;;;;0.35;0.30;;;21.20;56.60;;;;;;5120604;28;20031;-42
2021/12/20 10:05:00;;;;;;;0.30;0.30;;;21.30;56.90;;;;;;5120467;28;20051;-41
2021/12/20 10:07:28;;;;;;;0.45;0.30;;;21.30;56.80;;;;;;5118346;28;20024;-42
2021/12/20 10:09:54;;;;;;;0.40;0.40;;;21.40;56.80;;;;;;5119453;28;20398;-41
2021/12/20 10:12:25;;;;;;;0.20;0.20;;;21.40;56.70;;;;;;5122714;28;20027;-42
2021/12/20 10:14:59;;;;;;;0.30;0.30;;;21.40;56.50;;;;;;5122704;28;20023;-41
2021/12/20 10:17:35;;;;;;;0.30;0.30;;;21.30;56.40;;;;;;5122734;28;20028;-40
2021/12/20 10:20:23;;;;;;;0.32;0.20;;;21.30;56.70;;;;;;5122123;28;20050;-41
2021/12/20 10:22:50;;;;;;;0.40;0.40;;;21.30;56.60;;;;;;5122901;28;20758;-43
2021/12/20 10:25:23;;;;;;;;;;;21.40;56.60;;;;;;5123144;28;20039;-40
2021/12/20 10:27:50;;;;;;;0.10;0.10;;;21.40;56.50;;;;;;5122571;28;19908;-42
2021/12/20 10:30:25;;;;;;;0.63;0.30;;;21.40;56.30;;;;;;5121938;28;20053;-41
2021/12/20 10:32:51;;;;;;;0.30;0.30;;;21.30;56.20;;;;;;5122201;28;20032;-41
2021/12/20 10:35:27;;;;;;;0.40;0.35;;;21.30;56.30;;;;;;5122622;28;20061;-41
2021/12/20 10:37:54;;;;;;;0.20;0.20;;;21.30;56.40;;;;;;5121582;28;20023;-41
2021/12/20 10:40:20;;;;;;;0.35;0.30;;;21.40;56.40;;;;;;5121846;28;20040;-41
2021/12/20 10:42:46;;;;;;;0.32;0.30;;;21.40;56.30;;;;;;5122025;28;20036;-41
2021/12/20 10:45:14;;;;;;;0.60;0.40;;;21.40;56.20;;;;;;5122483;28;20469;-42
2021/12/20 10:47:41;;;;;;;0.30;0.28;;;21.40;56.10;;;;;;5122465;28;20024;-41
2021/12/20 10:50:27;;;;;;;0.20;0.20;;;21.30;56.10;;;;;;5122229;28;20046;-41
2021/12/20 10:53:10;;;;;;;0.40;0.38;;;21.30;56.30;;;;;;5100583;28;20035;-40
2021/12/20 10:55:45;;;;;;;1.08;0.35;;;21.40;56.40;;;;;;5101937;28;20027;-40
2021/12/20 10:58:29;;;;;;;0.30;0.20;;;21.40;56.20;;;;;;5119217;28;20030;-43
2021/12/20 11:03:44;;;;;;;0.28;0.28;;;21.50;55.90;;;;;;5122368;28;20114;-41
2021/12/20 11:11:28;;;;;;;0.30;0.25;;;21.30;56.10;;;;;;5124844;28;20046;-40
2021/12/20 11:13:55;;;;;;;0.38;0.30;;;21.40;56.00;;;;;;5125972;28;20115;-40
2021/12/20 11:16:33;;;;;;;0.20;0.20;;;21.50;56.00;;;;;;5126006;28;20031;-42
2021/12/20 11:19:19;;;;;;;0.22;0.20;;;21.40;55.70;;;;;;5125918;28;20360;-41
2021/12/20 11:21:51;;;;;;;0.40;0.20;;;21.30;55.60;;;;;;5125520;28;20043;-40
2021/12/20 11:24:19;;;;;;;0.30;0.30;;;21.30;55.80;;;;;;5125599;28;20027;-42
2021/12/20 11:26:45;;;;;;;0.40;0.30;;;21.30;56.00;;;;;;5125686;28;20039;-41
2021/12/20 11:29:12;;;;;;;0.20;0.20;;;21.40;55.90;;;;;;5125446;28;20472;-41
2021/12/20 11:31:38;;;;;;;0.30;0.30;;;21.40;55.80;;;;;;5125542;28;20488;-43
2021/12/20 11:34:05;;;;;;;0.30;0.30;;;21.40;55.70;;;;;;5125692;28;20041;-43
2021/12/20 11:36:31;;;;;;;0.43;0.30;;;21.40;55.60;;;;;;5125459;28;20034;-41
2021/12/20 11:39:00;;;;;;;0.30;0.30;;;21.30;55.50;;;;;;5108844;27;20177;-44
2021/12/20 11:41:26;;;;;;;0.30;0.30;;;21.30;55.70;;;;;;5114520;28;20065;-40
2021/12/20 11:43:53;;;;;;;0.38;0.38;;;21.30;55.80;;;;;;5125348;28;20023;-41
2021/12/20 11:46:20;;;;;;;0.50;0.40;;;21.40;55.60;;;;;;5123771;28;20499;-40
2021/12/20 11:48:46;;;;;;;0.30;0.30;;;21.50;55.50;;;;;;5106745;28;20051;-41
2021/12/20 11:51:12;;;;;;;0.25;0.25;;;21.40;55.20;;;;;;5124829;28;20034;-40
2021/12/20 11:53:40;;;;;;;0.40;0.30;;;21.40;55.10;;;;;;5125155;28;20487;-40
2021/12/20 11:56:07;;;;;;;0.40;0.20;;;21.30;55.20;;;;;;5124831;28;20061;-40
2021/12/20 11:58:33;;;;;;;0.30;0.30;;;21.30;56.00;;;;;;5125313;28;20037;-41
2021/12/20 12:01:04;;;;;;;0.40;0.38;;;21.40;55.40;;;;;;5124708;28;20063;-41
2021/12/20 12:03:32;;;;;;;0.20;0.20;;;21.40;55.20;;;;;;5124889;28;20031;-41
2021/12/20 12:06:00;;;;;;;0.40;0.40;;;21.50;55.20;;;;;;5125067;28;20028;-41
2021/12/20 12:08:33;;;;;;;0.30;0.30;;;21.40;55.00;;;;;;5123885;28;20024;-41
2021/12/20 12:11:08;;;;;;;0.32;0.30;;;21.40;55.00;;;;;;5157278;27;20035;-41
2021/12/20 12:14:05;;;;;;;0.28;0.28;;;21.30;55.20;;;;;;5124953;28;20019;-40
2021/12/20 12:17:02;;;;;;;0.30;0.30;;;21.40;55.20;;;;;;5100123;28;20066;-41
2021/12/20 12:19:40;;;;;;;0.32;0.30;;;21.40;55.10;;;;;;5103723;28;20020;-42
2021/12/20 12:22:46;;;;;;;0.52;0.30;;;21.40;55.10;;;;;;5104107;28;20042;-41
2021/12/20 12:25:33;;;;;;;0.20;0.20;;;21.40;54.80;;;;;;5041066;28;20034;-42
2021/12/20 12:27:59;;;;;;;0.40;0.30;;;21.30;54.90;;;;;;5041580;28;20068;-43
2021/12/20 12:30:28;;;;;;;0.60;0.30;;;21.30;55.20;;;;;;5049507;28;20044;-42
2021/12/20 12:32:55;;;;;;;0.30;0.30;;;21.40;55.00;;;;;;5060455;28;20056;-42
2021/12/20 12:35:41;;;;;;;0.40;0.30;;;21.50;55.00;;;;;;5061020;28;20033;-45
2021/12/20 12:38:33;;;;;;;0.32;0.32;;;21.50;55.10;;;;;;5060620;28;20052;-45
2021/12/20 12:41:05;;;;;;;0.40;0.30;;;21.40;54.80;;;;;;5053480;28;20059;-41
2021/12/20 12:43:57;;;;;;;0.22;0.22;;;21.40;54.80;;;;;;5040647;28;20065;-44
2021/12/20 12:46:41;;;;;;;0.30;0.30;;;21.40;55.10;;;;;;5060418;28;20072;-42
2021/12/20 12:49:22;;;;;;;0.40;0.40;;;21.50;55.10;;;;;;5060410;28;20048;-42
2021/12/20 12:51:52;;;;;;;0.47;0.47;;;21.50;55.00;;;;;;5040386;28;20138;-42
2021/12/20 12:54:33;;;;;;;0.77;0.30;;;21.50;55.00;;;;;;5040668;28;20025;-42
2021/12/20 12:57:12;;;;;;;0.45;0.30;;;21.40;54.70;;;;;;5107547;28;20039;-43
2021/12/20 12:59:52;;;;;;;0.80;0.50;;;21.30;54.70;;;;;;5121598;28;20080;-41
2021/12/20 13:02:22;;;;;;;0.50;0.40;;;21.30;55.00;;;;;;5103256;28;20036;-41
2021/12/20 13:04:56;;;;;;;0.30;0.30;;;21.40;55.00;;;;;;5103279;28;20230;-41
2021/12/20 13:07:32;;;;;;;0.30;0.30;;;21.50;54.80;;;;;;5114154;28;20079;-43
2021/12/20 13:10:02;;;;;;;0.30;0.30;;;21.50;54.80;;;;;;5123453;28;20096;-43
2021/12/20 13:12:40;;;;;;;0.30;0.30;;;21.50;54.60;;;;;;5123169;28;20180;-42
2021/12/20 13:15:12;;;;;;;;;;;21.40;54.50;;;;;;5123603;28;20036;-40
2021/12/20 13:17:45;;;;;;;0.32;0.32;;;21.30;54.60;;;;;;5123668;28;19971;-41